Terminal Aerodrome Forecast
Issued by NWS

Home | Current Version | Previous Version | Text Only | Print | Product List | Glossary On
Versions: 1 2 3 4 5 6 7 8 9 10 11 12 13 14 15 16 17 18 19 20 21 22 23 24 25 26 27 28
000
FTUS43 KILX 310113 AAB
TAFDEC
TAF AMD
KDEC 310113Z 3101/3124 23010KT P6SM VCSH SCT010 BKN080
      TEMPO 3101/3102 5SM -SHRA BR BKN015
     FM310200 27012G20KT 6SM BR VCSH SCT010 BKN050
      TEMPO 3102/3105 3SM -SHRA BR BKN010
     FM310500 28010KT 4SM -RA BR OVC005
     FM311400 33014G18KT 6SM BR VCSH OVC007
     FM312100 33011KT P6SM OVC012=

USA.gov is the U.S. government's official web portal to all federal, state and local government web resources and services.